Main page
METAR-TAF:

METAR-TAF

Airports :

Siem Reap International Airport

Siem Reap, Cambodia

latitude: 13-22N, longitude: 103-51E, elevation: 15 m

Current weather observation

The report was made 41 minutes ago, at 20:30 UTC
Calm wind
Temperature 23°C
Humidity 89%
Pressure 1010 hPa
Visibility: 9000 m
Scattered clouds at a height of 1700 ft

METAR: VDSR 172030Z 00000KT 9000 SCT017 23/21 Q1010

Time: 04:11 (21:11 UTC)

Forecast

The report was made 4 hours and 11 minutes ago, at 17:00 UTC
Forecast valid from 17 at 18 UTC to 18 at 12 UTC
Wind 6 kt from the East/Northeast
Visibility 10 km or more
Scattered clouds at a height of 1700 ft

TAF: VDSR 171700Z 1718/1812 06006KT 9999 SCT017

Weather observations and forecasts of more than 4000 airports (METAR and TAF reports).

The available stations are represented by yellow and red dots on the map.

Hover mouse over dot to see the name of the station.

Then click to see weather observations and forecasts.

To change the map : click on the green buttons with a black cross to zoom in, on the green button with a dash to zoom out, or on the green arrows for adjacent maps.


METAR-TAF: